createdAt,value
2023-04-03T00:00:41.439Z,3.93
2023-04-03T00:04:23.067Z,3.48
2023-04-03T00:08:04.709Z,4.00
2023-04-03T00:11:46.408Z,4.07
2023-04-03T00:15:28.039Z,3.51
2023-04-03T00:19:09.701Z,2.69
2023-04-03T00:22:51.336Z,3.17
2023-04-03T00:26:32.941Z,2.61
2023-04-03T00:30:14.618Z,3.34
2023-04-03T00:33:56.432Z,5.38
2023-04-03T00:37:38.123Z,3.41
2023-04-03T00:41:19.992Z,4.08
2023-04-03T00:45:01.843Z,6.62
2023-04-03T00:48:43.658Z,4.49
2023-04-03T00:52:25.355Z,4.65
2023-04-03T00:56:07.150Z,4.79
2023-04-03T00:59:48.971Z,4.72
2023-04-03T01:03:30.695Z,5.61
2023-04-03T01:07:12.655Z,5.43
2023-04-03T01:10:54.366Z,3.40
2023-04-03T01:14:36.015Z,2.40
2023-04-03T01:18:17.624Z,4.75
2023-04-03T01:21:59.443Z,4.92
2023-04-03T01:25:41.385Z,4.11
2023-04-03T01:29:23.119Z,3.24
2023-04-03T01:33:04.872Z,3.69
2023-04-03T01:36:46.517Z,3.75
2023-04-03T01:40:28.363Z,4.87
2023-04-03T01:44:10.141Z,4.30
2023-04-03T01:47:51.956Z,4.61
2023-04-03T01:51:33.552Z,2.85
2023-04-03T01:55:15.329Z,4.54
2023-04-03T01:58:57.018Z,2.97
2023-04-03T02:02:38.970Z,3.77
2023-04-03T02:06:20.676Z,4.71
2023-04-03T02:10:02.637Z,6.96
2023-04-03T02:13:44.434Z,6.01
2023-04-03T02:17:26.344Z,4.39
2023-04-03T02:21:08.220Z,4.65
2023-04-03T02:24:49.963Z,5.43
2023-04-03T02:28:31.782Z,4.35
2023-04-03T02:32:13.595Z,4.12
2023-04-03T02:35:55.510Z,4.45
2023-04-03T02:39:37.331Z,5.02
2023-04-03T02:43:19.172Z,5.30
2023-04-03T02:47:01.050Z,5.18
2023-04-03T02:50:42.904Z,5.16
2023-04-03T02:54:24.755Z,6.37
2023-04-03T02:58:08.652Z,5.46
2023-04-03T03:01:48.573Z,6.27
2023-04-03T03:05:30.404Z,5.16
2023-04-03T03:09:12.285Z,6.54
2023-04-03T03:12:54.179Z,6.64
2023-04-03T03:16:36.155Z,5.42
2023-04-03T03:20:18.060Z,7.13
2023-04-03T03:23:59.977Z,7.09
2023-04-03T03:27:41.918Z,6.44
2023-04-03T03:31:23.715Z,5.28
2023-04-03T03:35:06.549Z,6.64
2023-04-03T03:38:48.390Z,4.63
2023-04-03T03:42:30.317Z,7.85
2023-04-03T03:46:12.167Z,5.30
2023-04-03T03:49:53.938Z,6.65
2023-04-03T03:53:35.812Z,4.57
2023-04-03T03:57:17.654Z,6.17
2023-04-03T04:00:59.498Z,7.75
2023-04-03T04:04:41.428Z,7.85
2023-04-03T04:08:23.393Z,5.24
2023-04-03T04:12:05.345Z,4.18
2023-04-03T04:15:47.088Z,5.24
2023-04-03T04:19:29.058Z,6.18
2023-04-03T04:23:10.958Z,6.68
2023-04-03T04:26:52.832Z,7.29
2023-04-03T04:30:34.778Z,6.56
2023-04-03T04:34:16.672Z,6.82
2023-04-03T04:37:58.405Z,6.15
2023-04-03T04:41:40.309Z,5.79
2023-04-03T04:45:22.184Z,5.20
2023-04-03T04:49:04.053Z,6.31
2023-04-03T04:52:45.900Z,4.75
2023-04-03T04:56:27.793Z,5.67
2023-04-03T05:00:09.668Z,5.95
2023-04-03T05:03:51.451Z,4.39
2023-04-03T05:07:33.341Z,4.22
2023-04-03T05:11:15.259Z,7.01
2023-04-03T05:14:57.190Z,7.52
2023-04-03T05:18:39.077Z,4.66
2023-04-03T05:22:20.982Z,5.45
2023-04-03T05:26:02.825Z,4.71
2023-04-03T05:29:45.178Z,4.10
2023-04-03T05:33:26.437Z,4.46
2023-04-03T05:37:08.149Z,4.43
2023-04-03T05:40:49.995Z,4.22
2023-04-03T05:44:31.796Z,5.22
2023-04-03T05:48:13.539Z,2.98
2023-04-03T05:51:55.106Z,2.86
2023-04-03T05:55:37.018Z,5.03
2023-04-03T05:59:18.861Z,6.99
2023-04-03T06:03:00.761Z,3.51
2023-04-03T06:06:42.378Z,4.21
2023-04-03T06:10:24.117Z,3.83
2023-04-03T06:14:05.911Z,5.34
2023-04-03T06:17:47.645Z,3.44
2023-04-03T06:21:29.504Z,4.32
2023-04-03T06:25:11.220Z,3.89
2023-04-03T06:28:53.067Z,4.48
2023-04-03T06:32:34.910Z,5.18
2023-04-03T06:36:16.756Z,5.06
2023-04-03T06:39:58.651Z,5.02
2023-04-03T06:43:40.416Z,4.15
2023-04-03T06:47:22.288Z,4.82
2023-04-03T06:51:03.970Z,3.71
2023-04-03T06:54:45.692Z,2.81
2023-04-03T06:58:27.538Z,4.57
2023-04-03T07:02:09.305Z,4.21
2023-04-03T07:05:51.113Z,4.56
2023-04-03T07:09:32.854Z,3.22
2023-04-03T07:13:14.753Z,5.63
2023-04-03T07:16:56.524Z,4.04
2023-04-03T07:20:38.375Z,4.94
2023-04-03T07:24:20.045Z,4.85
2023-04-03T07:28:01.885Z,5.40
2023-04-03T07:31:43.775Z,4.83
2023-04-03T07:35:25.731Z,4.57
2023-04-03T07:39:07.362Z,3.94
2023-04-03T07:42:49.227Z,4.77
2023-04-03T07:46:31.102Z,5.91
2023-04-03T07:50:12.995Z,5.77
2023-04-03T07:53:54.830Z,5.11
2023-04-03T07:57:36.684Z,3.07
2023-04-03T08:01:18.343Z,4.23
2023-04-03T08:05:00.420Z,4.90
2023-04-03T08:08:41.958Z,4.79
2023-04-03T08:12:23.811Z,5.58
2023-04-03T08:16:05.537Z,3.32
2023-04-03T08:19:47.245Z,4.05
2023-04-03T08:23:29.058Z,4.51
2023-04-03T08:27:10.833Z,4.53
2023-04-03T08:30:52.513Z,4.06
2023-04-03T08:34:34.237Z,4.00
2023-04-03T08:38:16.180Z,4.53
2023-04-03T08:41:57.953Z,3.22
2023-04-03T08:45:39.983Z,3.17
2023-04-03T08:49:21.468Z,3.39
2023-04-03T08:53:03.036Z,4.35
2023-04-03T08:56:44.693Z,2.80
2023-04-03T09:00:26.510Z,4.87
2023-04-03T09:04:08.434Z,5.08
2023-04-03T09:07:50.336Z,3.86
2023-04-03T09:11:32.174Z,4.24
2023-04-03T09:15:14.345Z,4.58
2023-04-03T09:18:55.769Z,3.49
2023-04-03T09:22:45.601Z,4.18
2023-04-03T09:26:19.534Z,4.53
2023-04-03T09:30:01.282Z,4.86
2023-04-03T09:33:43.174Z,4.38
2023-04-03T09:37:24.912Z,5.16
2023-04-03T09:41:06.727Z,4.23
2023-04-03T09:44:48.707Z,4.31
2023-04-03T09:48:30.345Z,2.98
2023-04-03T09:52:11.975Z,3.12
2023-04-03T09:55:53.642Z,3.70
2023-04-03T09:59:35.393Z,4.24
2023-04-03T10:03:17.306Z,4.15
2023-04-03T10:06:58.841Z,3.05
2023-04-03T10:10:40.642Z,3.03
2023-04-03T10:14:22.122Z,3.98
2023-04-03T10:18:14.247Z,3.28
2023-04-03T10:21:45.557Z,2.83
2023-04-03T10:25:27.082Z,4.88
2023-04-03T10:29:08.883Z,4.75
2023-04-03T10:32:50.672Z,2.73
2023-04-03T10:36:32.517Z,1.70
2023-04-03T10:40:14.223Z,2.94
2023-04-03T10:43:55.714Z,2.76
2023-04-03T10:47:39.500Z,3.48
2023-04-03T10:51:19.087Z,3.28
2023-04-03T10:55:00.858Z,3.06
2023-04-03T10:58:42.704Z,4.93
2023-04-03T11:02:24.268Z,2.28
2023-04-03T11:06:05.848Z,3.03
2023-04-03T11:09:47.559Z,3.24
2023-04-03T11:13:29.187Z,2.43
2023-04-03T11:20:50.952Z,1.70
2023-04-03T11:24:32.558Z,3.54
2023-04-03T11:28:14.229Z,2.64
2023-04-03T11:31:55.876Z,2.58
2023-04-03T11:35:38.015Z,3.01
2023-04-03T11:39:19.414Z,3.40
2023-04-03T11:43:00.976Z,3.29
2023-04-03T11:46:42.722Z,3.46
2023-04-03T11:50:24.428Z,3.34
2023-04-03T11:54:06.196Z,4.72
2023-04-03T11:57:48.139Z,3.84
2023-04-03T12:01:29.828Z,4.07
2023-04-03T12:05:11.688Z,4.58
2023-04-03T12:08:53.581Z,4.75
2023-04-03T12:12:35.330Z,4.05
2023-04-03T12:16:17.196Z,4.08
2023-04-03T12:19:58.724Z,3.37
2023-04-03T12:23:40.527Z,3.72
2023-04-03T12:27:22.281Z,3.89
2023-04-03T12:31:04.124Z,4.05
2023-04-03T12:34:46.105Z,4.71
2023-04-03T12:38:27.801Z,5.21
2023-04-03T12:42:09.546Z,5.74
2023-04-03T12:45:51.513Z,7.23
2023-04-03T12:49:33.183Z,3.44
2023-04-03T12:53:15.145Z,7.19
2023-04-03T12:56:56.817Z,4.99
2023-04-03T13:00:38.660Z,4.83
2023-04-03T13:04:20.352Z,2.65
2023-04-03T13:08:02.218Z,3.69
2023-04-03T13:11:44.246Z,5.17
2023-04-03T13:15:26.065Z,6.94
2023-04-03T13:19:07.802Z,4.84
2023-04-03T13:22:49.560Z,4.37
2023-04-03T13:26:31.381Z,4.35
2023-04-03T13:30:13.323Z,4.17
2023-04-03T13:33:55.075Z,4.00
2023-04-03T13:37:36.871Z,4.52
2023-04-03T13:41:18.730Z,4.80
2023-04-03T13:45:00.705Z,4.70
2023-04-03T13:48:42.610Z,4.29
2023-04-03T13:52:24.379Z,4.39
2023-04-03T13:56:05.986Z,2.91
2023-04-03T13:59:47.903Z,6.31
2023-04-03T14:03:29.659Z,3.85
2023-04-03T14:07:11.650Z,6.32
2023-04-03T14:10:53.396Z,4.86
2023-04-03T14:14:35.291Z,6.66
2023-04-03T14:18:17.183Z,4.57
2023-04-03T14:21:59.031Z,4.46
2023-04-03T14:25:40.910Z,4.85
2023-04-03T14:29:22.723Z,7.31
2023-04-03T14:33:04.626Z,6.17
2023-04-03T14:36:46.503Z,5.93
2023-04-03T14:40:28.382Z,7.24
2023-04-03T14:44:10.250Z,5.79
2023-04-03T14:47:52.339Z,7.80
2023-04-03T14:51:33.977Z,5.09
2023-04-03T14:55:15.874Z,8.48
2023-04-03T14:58:57.800Z,8.28
2023-04-03T15:02:40.124Z,5.60
2023-04-03T15:06:21.415Z,6.25
2023-04-03T15:10:03.525Z,6.28
2023-04-03T15:13:45.196Z,5.82
2023-04-03T15:17:27.130Z,5.58
2023-04-03T15:21:09.029Z,5.13
2023-04-03T15:24:50.925Z,5.05
2023-04-03T15:28:32.784Z,5.30
2023-04-03T15:32:14.768Z,8.78
2023-04-03T15:36:06.651Z,5.83
2023-04-03T15:39:38.523Z,6.14
2023-04-03T15:43:20.237Z,6.32
2023-04-03T15:47:02.044Z,6.35
2023-04-03T15:50:43.913Z,6.69
2023-04-03T15:54:25.777Z,5.17
2023-04-03T15:58:07.682Z,7.31
2023-04-03T16:01:49.620Z,5.99
2023-04-03T16:05:31.439Z,8.01
2023-04-03T16:09:13.400Z,9.01
2023-04-03T16:12:55.334Z,6.59
2023-04-03T16:16:37.206Z,9.18
2023-04-03T16:20:19.122Z,7.08
2023-04-03T16:24:01.101Z,11.90
2023-04-03T16:27:43.091Z,6.96
2023-04-03T16:31:25.008Z,6.81
2023-04-03T16:35:06.923Z,8.43
2023-04-03T16:38:48.817Z,7.00
2023-04-03T16:42:30.773Z,9.48
2023-04-03T16:46:12.781Z,7.62
2023-04-03T16:49:54.802Z,7.06
2023-04-03T16:53:36.776Z,7.99
2023-04-03T16:57:18.779Z,6.53
2023-04-03T17:01:00.759Z,9.12
2023-04-03T17:04:42.631Z,7.39
2023-04-03T17:08:24.594Z,8.23
2023-04-03T17:12:06.531Z,5.59
2023-04-03T17:15:48.350Z,5.30
2023-04-03T17:19:30.342Z,7.48
2023-04-03T17:23:12.340Z,6.12
2023-04-03T17:26:54.279Z,9.34
2023-04-03T17:30:36.224Z,6.54
2023-04-03T17:34:18.123Z,6.38
2023-04-03T17:38:00.032Z,3.88
2023-04-03T17:41:42.131Z,6.66
2023-04-03T17:45:24.048Z,7.72
2023-04-03T17:49:06.027Z,6.78
2023-04-03T17:52:47.872Z,7.54
2023-04-03T17:56:29.747Z,5.12
2023-04-03T18:00:11.675Z,8.71
2023-04-03T18:03:53.815Z,9.05
2023-04-03T18:07:35.945Z,6.70
2023-04-03T18:11:17.768Z,5.36
2023-04-03T18:14:59.631Z,6.01
2023-04-03T18:18:41.626Z,7.30
2023-04-03T18:22:23.668Z,8.15
2023-04-03T18:26:05.776Z,8.27
2023-04-03T18:29:50.698Z,6.71
2023-04-03T18:33:32.968Z,7.03
2023-04-03T18:37:15.156Z,7.71
2023-04-03T18:40:57.380Z,8.46
2023-04-03T18:44:39.426Z,6.49
2023-04-03T18:48:21.614Z,7.80
2023-04-03T18:52:03.724Z,5.75
2023-04-03T18:55:45.697Z,6.46
2023-04-03T18:59:27.829Z,8.96
2023-04-03T19:03:09.948Z,7.91
2023-04-03T19:06:51.952Z,5.49
2023-04-03T19:10:34.056Z,7.98
2023-04-03T19:14:17.166Z,5.90
2023-04-03T19:17:58.031Z,4.99
2023-04-03T19:21:40.083Z,6.84
2023-04-03T19:25:22.143Z,4.40
2023-04-03T19:29:04.268Z,8.60
2023-04-03T19:32:46.399Z,6.07
2023-04-03T19:36:28.446Z,5.46
2023-04-03T19:40:10.453Z,4.78
2023-04-03T19:43:52.237Z,5.75
2023-04-03T19:47:35.423Z,7.13
2023-04-03T19:51:17.990Z,4.76
2023-04-03T19:54:59.797Z,4.18
2023-04-03T19:58:41.862Z,5.65
2023-04-03T20:02:23.744Z,4.22
2023-04-03T20:06:05.828Z,4.80
2023-04-03T20:09:47.872Z,3.32
2023-04-03T20:13:29.652Z,3.77
2023-04-03T20:17:11.593Z,3.24
2023-04-03T20:20:53.336Z,4.43
2023-04-03T20:24:35.203Z,4.71
2023-04-03T20:28:16.948Z,5.33
2023-04-03T20:31:58.928Z,4.73
2023-04-03T20:35:40.540Z,5.18
2023-04-03T20:39:22.292Z,4.73
2023-04-03T20:43:03.841Z,3.69
2023-04-03T20:46:52.858Z,4.60
2023-04-03T20:50:27.190Z,2.15
2023-04-03T20:54:08.855Z,3.45
2023-04-03T20:57:54.423Z,4.24
2023-04-03T21:01:32.282Z,6.36
2023-04-03T21:05:13.854Z,3.77
2023-04-03T21:08:55.623Z,4.60
2023-04-03T21:12:37.340Z,4.50
2023-04-03T21:16:19.014Z,4.31
2023-04-03T21:20:00.524Z,2.87
2023-04-03T21:23:42.219Z,4.28
2023-04-03T21:27:23.929Z,2.97
2023-04-03T21:31:05.680Z,6.46
2023-04-03T21:34:47.334Z,4.40
2023-04-03T21:38:29.176Z,4.90
2023-04-03T21:42:10.937Z,3.81
2023-04-03T21:45:52.634Z,2.89
2023-04-03T21:49:34.333Z,2.96
2023-04-03T21:53:16.061Z,4.37
2023-04-03T21:56:57.812Z,3.77
2023-04-03T22:00:39.753Z,3.83
2023-04-03T22:08:01.347Z,3.96
2023-04-03T22:11:42.928Z,3.04
2023-04-03T22:22:44.679Z,0.00
2023-04-03T22:33:46.483Z,0.00
2023-04-03T22:44:48.244Z,0.00
2023-04-03T22:55:49.995Z,0.00
2023-04-03T23:03:11.659Z,2.19
2023-04-03T23:14:13.431Z,0.00
2023-04-03T23:25:15.103Z,0.00
2023-04-03T23:36:16.908Z,0.00
2023-04-03T23:47:18.582Z,0.00
2023-04-03T23:58:20.347Z,0.00
